Flight Track Log - Related Links

Times and Time Zones

All times are in EDT time to prevent confusion due to time zone crossing. See the AKX1768 flight status page for this flight to view local times or setup timezone preferences in your user account.

Time Position Orientation Groundspeed Altitude Reporting Facility
EDT Latitude Longitude Course Direction KTS MPH feet Rate Location/Type
Fri 11:41:15 PM 24.3588 124.2128 59° Northeast  Level Estimated
Fri 11:42:15 PM 24.4160 124.3159 59° Northeast  Level Estimated
Fri 11:43:15 PM 24.4731 124.4191 59° Northeast  Level Estimated
Fri 11:44:15 PM 24.5301 124.5225 59° Northeast  Level Estimated
Fri 11:45:15 PM 24.5870 124.6259 59° Northeast  Level Estimated
Fri 11:46:15 PM 24.6439 124.7294 59° Northeast  Level Estimated
Fri 11:47:15 PM 24.7007 124.8330 59° Northeast  Level Estimated
Fri 11:48:15 PM 24.7575 124.9368 59° Northeast  Level Estimated
Fri 11:49:15 PM 24.8141 125.0406 59° Northeast  Level Estimated
Fri 11:50:15 PM 24.8707 125.1445 59° Northeast  Level Estimated
Fri 11:51:15 PM 24.9272 125.2485 59° Northeast  Level Estimated
Fri 11:52:15 PM 24.9837 125.3525 59° Northeast  Level Estimated
Fri 11:53:15 PM 25.0401 125.4567 59° Northeast  Level Estimated
Fri 11:54:15 PM 25.0964 125.5610 59° Northeast  Level Estimated
Fri 11:55:15 PM 25.1526 125.6654 59° Northeast  Level Estimated
Fri 11:56:15 PM 25.2087 125.7699 59° Northeast  Level Estimated
Fri 11:57:15 PM 25.2648 125.8744 59° Northeast  Level Estimated
Fri 11:58:15 PM 25.3208 125.9791 59° Northeast  Level Estimated
Fri 11:59:15 PM 25.3768 126.0839 59° Northeast  Level Estimated
Sat 12:00:15 AM 25.4326 126.1887 59° Northeast  Level Estimated
Sat 12:01:15 AM 25.4884 126.2937 60° Northeast  Level Estimated
Sat 12:02:15 AM 25.5441 126.3988 60° Northeast  Level Estimated
Sat 12:03:15 AM 25.5998 126.5039 60° Northeast  Level Estimated
Sat 12:04:15 AM 25.6553 126.6092 60° Northeast  Level Estimated
Sat 12:05:15 AM 25.7108 126.7145 60° Northeast  Level Estimated
Sat 12:06:15 AM 25.7662 126.8199 60° Northeast  Level Estimated
Sat 12:07:15 AM 25.8216 126.9255 60° Northeast  Level Estimated
Sat 12:08:15 AM 25.8768 127.0311 60° Northeast  Level Estimated
Sat 12:09:15 AM 25.9320 127.1369 60° Northeast  Level Estimated
Sat 12:10:15 AM 25.9871 127.2427 60° Northeast  Level Estimated
Sat 12:11:15 AM 26.0421 127.3487 60° Northeast  Level Estimated
Sat 12:12:15 AM 26.0971 127.4547 60° Northeast  Level Estimated
Sat 12:13:15 AM 26.1520 127.5609 60° Northeast  Level Estimated
Sat 12:14:15 AM 26.2068 127.6671 240° Southwest  Level Estimated
Sat 12:15:15 AM 26.1520 127.5609 60° Northeast  Level Estimated
Sat 12:16:15 AM 26.2068 127.6671 240° Southwest  Level Estimated
Sat 12:17:15 AM 26.1520 127.5609 60° Northeast  Level Estimated
Sat 12:18:15 AM 26.2068 127.6671 240° Southwest  Level Estimated
Sat 12:19:15 AM 26.1520 127.5609 60° Northeast  Level Estimated
Sat 12:20:15 AM 26.2068 127.6671 240° Southwest  Level Estimated
Sat 12:21:15 AM 26.1520 127.5609 60° Northeast  Level Estimated
Sat 12:22:15 AM 26.2068 127.6671 240° Southwest  Level Estimated
Sat 12:23:15 AM 26.1520 127.5609 60° Northeast  Level Estimated
Sat 12:24:15 AM 26.2068 127.6671 240° Southwest  Level Estimated
Sat 12:25:15 AM 26.1520 127.5609 60° Northeast  Level Estimated
Sat 12:26:15 AM 26.2068 127.6671 240° Southwest  Level Estimated
Sat 12:27:15 AM 26.1520 127.5609 60° Northeast  Level Estimated
Sat 12:28:15 AM 26.2068 127.6671 240° Southwest  Level Estimated
Sat 12:29:15 AM 26.1520 127.5609 240° Southwest  Level Estimated

Login

Don't have an account? Register now (free) for customized features, flight alerts, and more!